sensor_id;sensor_type;location;lat;lon;timestamp;temperature;humidity
33841;DHT22;20142;28.494;-16.312;2023-12-20T00:01:27;17.70;76.40
33841;DHT22;20142;28.494;-16.312;2023-12-20T00:06:30;17.60;76.50
33841;DHT22;20142;28.494;-16.312;2023-12-20T00:11:32;17.80;77.10
33841;DHT22;20142;28.494;-16.312;2023-12-20T00:16:33;17.70;76.80
33841;DHT22;20142;28.494;-16.312;2023-12-20T00:21:35;17.80;76.50
33841;DHT22;20142;28.494;-16.312;2023-12-20T00:26:37;17.80;76.70
33841;DHT22;20142;28.494;-16.312;2023-12-20T00:31:38;17.80;76.50
33841;DHT22;20142;28.494;-16.312;2023-12-20T00:36:40;17.80;76.50
33841;DHT22;20142;28.494;-16.312;2023-12-20T00:41:42;17.80;76.80
33841;DHT22;20142;28.494;-16.312;2023-12-20T00:46:43;17.90;76.80
33841;DHT22;20142;28.494;-16.312;2023-12-20T00:51:45;17.90;76.90
33841;DHT22;20142;28.494;-16.312;2023-12-20T00:56:48;17.80;77.00
33841;DHT22;20142;28.494;-16.312;2023-12-20T01:01:49;17.80;77.20
33841;DHT22;20142;28.494;-16.312;2023-12-20T01:06:52;17.90;77.60
33841;DHT22;20142;28.494;-16.312;2023-12-20T01:11:54;17.90;77.60
33841;DHT22;20142;28.494;-16.312;2023-12-20T01:16:56;17.80;77.80
33841;DHT22;20142;28.494;-16.312;2023-12-20T01:21:58;17.70;77.90
33841;DHT22;20142;28.494;-16.312;2023-12-20T01:26:59;17.60;78.00
33841;DHT22;20142;28.494;-16.312;2023-12-20T01:32:01;17.40;78.30
33841;DHT22;20142;28.494;-16.312;2023-12-20T01:37:03;17.40;78.40
33841;DHT22;20142;28.494;-16.312;2023-12-20T01:42:05;17.30;78.30
33841;DHT22;20142;28.494;-16.312;2023-12-20T01:47:07;17.30;78.40
33841;DHT22;20142;28.494;-16.312;2023-12-20T01:52:09;17.30;78.30
33841;DHT22;20142;28.494;-16.312;2023-12-20T01:57:11;17.40;78.40
33841;DHT22;20142;28.494;-16.312;2023-12-20T02:02:13;17.40;78.50
33841;DHT22;20142;28.494;-16.312;2023-12-20T02:07:15;17.40;77.90
33841;DHT22;20142;28.494;-16.312;2023-12-20T02:12:18;17.40;77.70
33841;DHT22;20142;28.494;-16.312;2023-12-20T02:17:20;17.40;77.70
33841;DHT22;20142;28.494;-16.312;2023-12-20T02:22:22;17.40;77.40
33841;DHT22;20142;28.494;-16.312;2023-12-20T02:27:24;17.40;77.10
33841;DHT22;20142;28.494;-16.312;2023-12-20T02:32:26;17.30;77.10
33841;DHT22;20142;28.494;-16.312;2023-12-20T02:37:27;17.40;77.00
33841;DHT22;20142;28.494;-16.312;2023-12-20T02:42:29;17.50;76.80
33841;DHT22;20142;28.494;-16.312;2023-12-20T02:47:31;17.50;76.70
33841;DHT22;20142;28.494;-16.312;2023-12-20T02:52:33;17.50;77.30
33841;DHT22;20142;28.494;-16.312;2023-12-20T02:57:34;17.30;77.00
33841;DHT22;20142;28.494;-16.312;2023-12-20T03:02:37;17.30;77.50
33841;DHT22;20142;28.494;-16.312;2023-12-20T03:07:39;17.20;77.40
33841;DHT22;20142;28.494;-16.312;2023-12-20T03:17:51;17.20;77.40
33841;DHT22;20142;28.494;-16.312;2023-12-20T03:22:53;17.10;77.30
33841;DHT22;20142;28.494;-16.312;2023-12-20T03:27:55;17.10;77.60
33841;DHT22;20142;28.494;-16.312;2023-12-20T03:32:57;17.10;77.80
33841;DHT22;20142;28.494;-16.312;2023-12-20T03:37:58;17.10;77.80
33841;DHT22;20142;28.494;-16.312;2023-12-20T03:43:01;17.20;78.00
33841;DHT22;20142;28.494;-16.312;2023-12-20T03:48:03;17.20;78.10
33841;DHT22;20142;28.494;-16.312;2023-12-20T03:53:06;17.20;77.80
33841;DHT22;20142;28.494;-16.312;2023-12-20T03:58:07;17.20;77.70
33841;DHT22;20142;28.494;-16.312;2023-12-20T04:03:09;17.30;77.60
33841;DHT22;20142;28.494;-16.312;2023-12-20T04:08:14;17.20;77.10
33841;DHT22;20142;28.494;-16.312;2023-12-20T04:13:16;17.20;76.80
33841;DHT22;20142;28.494;-16.312;2023-12-20T04:18:17;17.10;76.60
33841;DHT22;20142;28.494;-16.312;2023-12-20T04:23:19;17.10;76.30
33841;DHT22;20142;28.494;-16.312;2023-12-20T04:28:21;17.20;75.70
33841;DHT22;20142;28.494;-16.312;2023-12-20T04:33:22;17.10;75.50
33841;DHT22;20142;28.494;-16.312;2023-12-20T04:38:24;17.10;75.00
33841;DHT22;20142;28.494;-16.312;2023-12-20T04:43:26;17.10;75.30
33841;DHT22;20142;28.494;-16.312;2023-12-20T04:48:27;17.20;75.40
33841;DHT22;20142;28.494;-16.312;2023-12-20T04:53:29;17.20;75.30
33841;DHT22;20142;28.494;-16.312;2023-12-20T04:58:31;17.30;75.40
33841;DHT22;20142;28.494;-16.312;2023-12-20T05:03:33;17.30;75.70
33841;DHT22;20142;28.494;-16.312;2023-12-20T05:08:34;17.30;75.60
33841;DHT22;20142;28.494;-16.312;2023-12-20T05:13:36;17.20;76.40
33841;DHT22;20142;28.494;-16.312;2023-12-20T05:18:38;17.30;76.80
33841;DHT22;20142;28.494;-16.312;2023-12-20T05:23:39;17.30;76.90
33841;DHT22;20142;28.494;-16.312;2023-12-20T05:28:41;17.30;77.30
33841;DHT22;20142;28.494;-16.312;2023-12-20T05:33:43;17.20;77.80
33841;DHT22;20142;28.494;-16.312;2023-12-20T05:38:44;17.10;78.10
33841;DHT22;20142;28.494;-16.312;2023-12-20T05:43:46;17.00;78.10
33841;DHT22;20142;28.494;-16.312;2023-12-20T05:48:48;16.80;78.60
33841;DHT22;20142;28.494;-16.312;2023-12-20T05:53:50;16.70;78.90
33841;DHT22;20142;28.494;-16.312;2023-12-20T05:58:51;16.60;79.30
33841;DHT22;20142;28.494;-16.312;2023-12-20T06:03:53;16.60;79.30
33841;DHT22;20142;28.494;-16.312;2023-12-20T06:08:55;16.60;79.20
33841;DHT22;20142;28.494;-16.312;2023-12-20T06:13:56;16.50;79.30
33841;DHT22;20142;28.494;-16.312;2023-12-20T06:18:58;16.60;79.30
33841;DHT22;20142;28.494;-16.312;2023-12-20T06:24:00;16.50;79.50
33841;DHT22;20142;28.494;-16.312;2023-12-20T06:29:01;16.40;79.60
33841;DHT22;20142;28.494;-16.312;2023-12-20T06:34:03;16.40;79.60
33841;DHT22;20142;28.494;-16.312;2023-12-20T06:39:05;16.40;79.60
33841;DHT22;20142;28.494;-16.312;2023-12-20T06:44:06;16.50;79.70
33841;DHT22;20142;28.494;-16.312;2023-12-20T06:49:08;16.60;80.00
33841;DHT22;20142;28.494;-16.312;2023-12-20T06:54:10;16.70;80.00
33841;DHT22;20142;28.494;-16.312;2023-12-20T06:59:11;16.80;80.10
33841;DHT22;20142;28.494;-16.312;2023-12-20T07:04:13;16.80;80.30
33841;DHT22;20142;28.494;-16.312;2023-12-20T07:09:15;16.80;80.20
33841;DHT22;20142;28.494;-16.312;2023-12-20T07:14:17;16.80;80.70
33841;DHT22;20142;28.494;-16.312;2023-12-20T07:19:18;16.80;80.60
33841;DHT22;20142;28.494;-16.312;2023-12-20T07:24:20;16.80;80.60
33841;DHT22;20142;28.494;-16.312;2023-12-20T07:29:22;16.80;80.60
33841;DHT22;20142;28.494;-16.312;2023-12-20T07:34:23;16.80;80.80
33841;DHT22;20142;28.494;-16.312;2023-12-20T07:39:25;16.80;80.80
33841;DHT22;20142;28.494;-16.312;2023-12-20T07:44:27;16.70;81.00
33841;DHT22;20142;28.494;-16.312;2023-12-20T07:49:29;16.80;80.70
33841;DHT22;20142;28.494;-16.312;2023-12-20T07:54:32;16.60;80.80
33841;DHT22;20142;28.494;-16.312;2023-12-20T07:59:33;16.60;80.50
33841;DHT22;20142;28.494;-16.312;2023-12-20T08:04:35;16.50;80.80
33841;DHT22;20142;28.494;-16.312;2023-12-20T08:09:37;16.60;80.90
33841;DHT22;20142;28.494;-16.312;2023-12-20T08:14:38;16.60;81.10
33841;DHT22;20142;28.494;-16.312;2023-12-20T08:19:40;16.80;81.00
33841;DHT22;20142;28.494;-16.312;2023-12-20T08:24:42;17.00;80.60
33841;DHT22;20142;28.494;-16.312;2023-12-20T08:29:44;17.10;80.30
33841;DHT22;20142;28.494;-16.312;2023-12-20T08:34:46;16.80;80.10
33841;DHT22;20142;28.494;-16.312;2023-12-20T08:39:48;16.80;80.20
33841;DHT22;20142;28.494;-16.312;2023-12-20T08:44:50;16.80;80.10
33841;DHT22;20142;28.494;-16.312;2023-12-20T08:49:52;16.80;80.20
33841;DHT22;20142;28.494;-16.312;2023-12-20T08:54:59;16.90;80.10
33841;DHT22;20142;28.494;-16.312;2023-12-20T09:00:01;17.10;80.10
33841;DHT22;20142;28.494;-16.312;2023-12-20T09:05:04;17.20;79.90
33841;DHT22;20142;28.494;-16.312;2023-12-20T09:10:06;17.20;79.50
33841;DHT22;20142;28.494;-16.312;2023-12-20T09:15:08;17.20;79.00
33841;DHT22;20142;28.494;-16.312;2023-12-20T09:20:10;17.10;78.30
33841;DHT22;20142;28.494;-16.312;2023-12-20T09:25:13;17.20;78.50
33841;DHT22;20142;28.494;-16.312;2023-12-20T09:30:15;17.30;78.20
33841;DHT22;20142;28.494;-16.312;2023-12-20T09:35:17;17.30;78.10
33841;DHT22;20142;28.494;-16.312;2023-12-20T09:40:19;17.50;78.00
33841;DHT22;20142;28.494;-16.312;2023-12-20T09:45:21;17.80;77.90
33841;DHT22;20142;28.494;-16.312;2023-12-20T09:50:24;18.00;77.30
33841;DHT22;20142;28.494;-16.312;2023-12-20T09:55:25;18.00;77.50
33841;DHT22;20142;28.494;-16.312;2023-12-20T10:00:28;18.10;77.40
33841;DHT22;20142;28.494;-16.312;2023-12-20T10:05:31;18.20;76.90
33841;DHT22;20142;28.494;-16.312;2023-12-20T10:10:34;18.40;77.00
33841;DHT22;20142;28.494;-16.312;2023-12-20T10:15:37;18.50;76.20
33841;DHT22;20142;28.494;-16.312;2023-12-20T10:20:41;18.80;76.20
33841;DHT22;20142;28.494;-16.312;2023-12-20T10:25:47;19.00;75.50
33841;DHT22;20142;28.494;-16.312;2023-12-20T10:30:57;19.10;75.10
33841;DHT22;20142;28.494;-16.312;2023-12-20T10:35:59;19.20;74.80
33841;DHT22;20142;28.494;-16.312;2023-12-20T10:41:01;19.30;74.40
33841;DHT22;20142;28.494;-16.312;2023-12-20T10:46:05;19.60;74.30
33841;DHT22;20142;28.494;-16.312;2023-12-20T10:51:08;19.60;74.00
33841;DHT22;20142;28.494;-16.312;2023-12-20T10:56:13;19.90;73.60
33841;DHT22;20142;28.494;-16.312;2023-12-20T11:01:19;19.80;72.80
33841;DHT22;20142;28.494;-16.312;2023-12-20T11:06:36;19.70;72.90
33841;DHT22;20142;28.494;-16.312;2023-12-20T11:17:28;19.60;73.40
33841;DHT22;20142;28.494;-16.312;2023-12-20T11:22:33;19.40;73.30
33841;DHT22;20142;28.494;-16.312;2023-12-20T11:27:37;19.00;73.90
33841;DHT22;20142;28.494;-16.312;2023-12-20T11:32:42;19.00;75.00
33841;DHT22;20142;28.494;-16.312;2023-12-20T11:37:45;19.20;75.20
33841;DHT22;20142;28.494;-16.312;2023-12-20T11:42:51;19.30;74.90
33841;DHT22;20142;28.494;-16.312;2023-12-20T11:47:56;19.20;75.50
33841;DHT22;20142;28.494;-16.312;2023-12-20T11:52:58;19.10;75.80
33841;DHT22;20142;28.494;-16.312;2023-12-20T11:58:00;19.50;75.90
33841;DHT22;20142;28.494;-16.312;2023-12-20T12:03:02;19.90;76.10
33841;DHT22;20142;28.494;-16.312;2023-12-20T12:08:05;20.20;75.40
33841;DHT22;20142;28.494;-16.312;2023-12-20T12:13:07;20.30;75.00
33841;DHT22;20142;28.494;-16.312;2023-12-20T12:18:09;20.40;74.90
33841;DHT22;20142;28.494;-16.312;2023-12-20T12:23:11;20.30;74.30
33841;DHT22;20142;28.494;-16.312;2023-12-20T12:28:13;20.30;74.20
33841;DHT22;20142;28.494;-16.312;2023-12-20T12:33:15;20.40;75.00
33841;DHT22;20142;28.494;-16.312;2023-12-20T12:38:20;20.30;74.40
33841;DHT22;20142;28.494;-16.312;2023-12-20T12:43:22;20.60;74.30
33841;DHT22;20142;28.494;-16.312;2023-12-20T12:48:24;20.70;74.00
33841;DHT22;20142;28.494;-16.312;2023-12-20T12:53:26;20.80;73.40
33841;DHT22;20142;28.494;-16.312;2023-12-20T12:58:28;20.70;73.40
33841;DHT22;20142;28.494;-16.312;2023-12-20T13:03:30;20.80;73.40
33841;DHT22;20142;28.494;-16.312;2023-12-20T13:08:31;21.20;72.30
33841;DHT22;20142;28.494;-16.312;2023-12-20T13:13:33;21.20;71.00
33841;DHT22;20142;28.494;-16.312;2023-12-20T13:18:35;21.30;71.10
33841;DHT22;20142;28.494;-16.312;2023-12-20T13:23:37;21.40;70.00
33841;DHT22;20142;28.494;-16.312;2023-12-20T13:28:38;21.50;69.80
33841;DHT22;20142;28.494;-16.312;2023-12-20T13:33:40;21.20;69.00
33841;DHT22;20142;28.494;-16.312;2023-12-20T13:38:43;21.30;68.70
33841;DHT22;20142;28.494;-16.312;2023-12-20T13:43:45;21.60;68.80
33841;DHT22;20142;28.494;-16.312;2023-12-20T13:48:46;21.50;68.20
33841;DHT22;20142;28.494;-16.312;2023-12-20T13:53:48;20.90;69.20
33841;DHT22;20142;28.494;-16.312;2023-12-20T13:58:50;20.40;69.60
33841;DHT22;20142;28.494;-16.312;2023-12-20T14:03:52;20.00;70.50
33841;DHT22;20142;28.494;-16.312;2023-12-20T14:08:53;19.90;71.70
33841;DHT22;20142;28.494;-16.312;2023-12-20T14:13:55;19.60;72.30
33841;DHT22;20142;28.494;-16.312;2023-12-20T14:18:59;19.40;73.10
33841;DHT22;20142;28.494;-16.312;2023-12-20T14:24:01;19.30;73.40
33841;DHT22;20142;28.494;-16.312;2023-12-20T14:29:02;19.30;73.80
33841;DHT22;20142;28.494;-16.312;2023-12-20T14:34:05;19.40;74.20
33841;DHT22;20142;28.494;-16.312;2023-12-20T14:39:07;19.70;74.60
33841;DHT22;20142;28.494;-16.312;2023-12-20T14:44:09;19.70;73.40
33841;DHT22;20142;28.494;-16.312;2023-12-20T14:49:11;19.80;74.20
33841;DHT22;20142;28.494;-16.312;2023-12-20T14:54:13;19.80;73.90
33841;DHT22;20142;28.494;-16.312;2023-12-20T14:59:15;20.00;74.20
33841;DHT22;20142;28.494;-16.312;2023-12-20T15:04:17;20.30;74.10
33841;DHT22;20142;28.494;-16.312;2023-12-20T15:09:18;20.30;73.50
33841;DHT22;20142;28.494;-16.312;2023-12-20T15:14:20;20.20;73.20
33841;DHT22;20142;28.494;-16.312;2023-12-20T15:19:22;20.10;73.20
33841;DHT22;20142;28.494;-16.312;2023-12-20T15:24:24;23.30;71.30
33841;DHT22;20142;28.494;-16.312;2023-12-20T15:29:29;24.80;67.70
33841;DHT22;20142;28.494;-16.312;2023-12-20T15:34:32;28.00;62.60
33841;DHT22;20142;28.494;-16.312;2023-12-20T15:39:33;24.10;64.90
33841;DHT22;20142;28.494;-16.312;2023-12-20T15:44:35;22.50;68.30
33841;DHT22;20142;28.494;-16.312;2023-12-20T15:49:37;24.20;65.00
33841;DHT22;20142;28.494;-16.312;2023-12-20T15:54:39;22.30;66.60
33841;DHT22;20142;28.494;-16.312;2023-12-20T15:59:42;21.20;68.30
33841;DHT22;20142;28.494;-16.312;2023-12-20T16:04:44;20.80;69.30
33841;DHT22;20142;28.494;-16.312;2023-12-20T16:09:46;20.40;68.90
33841;DHT22;20142;28.494;-16.312;2023-12-20T16:14:48;20.00;69.80
33841;DHT22;20142;28.494;-16.312;2023-12-20T16:19:49;19.80;70.00
33841;DHT22;20142;28.494;-16.312;2023-12-20T16:24:52;19.50;70.70
33841;DHT22;20142;28.494;-16.312;2023-12-20T16:29:54;19.30;71.50
33841;DHT22;20142;28.494;-16.312;2023-12-20T16:34:55;19.40;72.30
33841;DHT22;20142;28.494;-16.312;2023-12-20T16:39:58;19.90;72.20
33841;DHT22;20142;28.494;-16.312;2023-12-20T16:44:59;21.30;70.70
33841;DHT22;20142;28.494;-16.312;2023-12-20T16:50:01;21.30;70.00
33841;DHT22;20142;28.494;-16.312;2023-12-20T16:55:09;20.40;70.20
33841;DHT22;20142;28.494;-16.312;2023-12-20T17:00:12;19.70;71.60
33841;DHT22;20142;28.494;-16.312;2023-12-20T17:05:14;19.50;72.20
33841;DHT22;20142;28.494;-16.312;2023-12-20T17:10:16;19.40;72.60
33841;DHT22;20142;28.494;-16.312;2023-12-20T17:15:17;19.20;72.90
33841;DHT22;20142;28.494;-16.312;2023-12-20T17:20:19;18.70;73.40
33841;DHT22;20142;28.494;-16.312;2023-12-20T17:25:21;18.60;74.20
33841;DHT22;20142;28.494;-16.312;2023-12-20T17:30:24;18.60;74.60
33841;DHT22;20142;28.494;-16.312;2023-12-20T17:35:25;18.40;74.70
33841;DHT22;20142;28.494;-16.312;2023-12-20T17:40:27;18.30;74.90
33841;DHT22;20142;28.494;-16.312;2023-12-20T17:45:29;18.30;75.30
33841;DHT22;20142;28.494;-16.312;2023-12-20T17:50:31;18.40;75.60
33841;DHT22;20142;28.494;-16.312;2023-12-20T17:55:32;18.30;75.70
33841;DHT22;20142;28.494;-16.312;2023-12-20T18:00:34;18.20;76.30
33841;DHT22;20142;28.494;-16.312;2023-12-20T18:05:36;18.20;76.80
33841;DHT22;20142;28.494;-16.312;2023-12-20T18:10:38;18.20;77.10
33841;DHT22;20142;28.494;-16.312;2023-12-20T18:15:40;18.10;77.60
33841;DHT22;20142;28.494;-16.312;2023-12-20T18:20:41;18.00;78.60
33841;DHT22;20142;28.494;-16.312;2023-12-20T18:25:43;17.90;78.90
33841;DHT22;20142;28.494;-16.312;2023-12-20T18:30:45;17.60;79.70
33841;DHT22;20142;28.494;-16.312;2023-12-20T18:35:46;17.50;80.20
33841;DHT22;20142;28.494;-16.312;2023-12-20T18:40:48;17.30;80.80
33841;DHT22;20142;28.494;-16.312;2023-12-20T18:45:50;17.50;81.50
33841;DHT22;20142;28.494;-16.312;2023-12-20T18:50:51;17.70;81.40
33841;DHT22;20142;28.494;-16.312;2023-12-20T18:55:53;17.50;81.50
33841;DHT22;20142;28.494;-16.312;2023-12-20T19:00:55;17.60;81.70
33841;DHT22;20142;28.494;-16.312;2023-12-20T19:05:57;17.50;81.70
33841;DHT22;20142;28.494;-16.312;2023-12-20T19:11:00;17.60;82.00
33841;DHT22;20142;28.494;-16.312;2023-12-20T19:16:01;17.50;82.20
33841;DHT22;20142;28.494;-16.312;2023-12-20T19:21:03;17.40;82.50
33841;DHT22;20142;28.494;-16.312;2023-12-20T19:26:10;17.40;82.40
33841;DHT22;20142;28.494;-16.312;2023-12-20T19:31:13;17.30;82.40
33841;DHT22;20142;28.494;-16.312;2023-12-20T19:36:15;17.40;82.50
33841;DHT22;20142;28.494;-16.312;2023-12-20T19:41:17;17.30;82.50
33841;DHT22;20142;28.494;-16.312;2023-12-20T19:46:19;17.40;82.30
33841;DHT22;20142;28.494;-16.312;2023-12-20T19:51:21;17.40;82.50
33841;DHT22;20142;28.494;-16.312;2023-12-20T19:56:24;17.30;82.50
33841;DHT22;20142;28.494;-16.312;2023-12-20T20:01:27;17.40;82.10
33841;DHT22;20142;28.494;-16.312;2023-12-20T20:06:28;17.40;82.30
33841;DHT22;20142;28.494;-16.312;2023-12-20T20:11:30;17.40;81.60
33841;DHT22;20142;28.494;-16.312;2023-12-20T20:16:32;17.30;81.30
33841;DHT22;20142;28.494;-16.312;2023-12-20T20:21:34;17.30;81.00
33841;DHT22;20142;28.494;-16.312;2023-12-20T20:26:35;17.20;80.70
33841;DHT22;20142;28.494;-16.312;2023-12-20T20:31:37;17.20;80.70
33841;DHT22;20142;28.494;-16.312;2023-12-20T20:36:39;17.30;80.60
33841;DHT22;20142;28.494;-16.312;2023-12-20T20:41:41;17.50;80.50
33841;DHT22;20142;28.494;-16.312;2023-12-20T20:46:42;17.40;80.50
33841;DHT22;20142;28.494;-16.312;2023-12-20T20:51:45;17.50;80.50
33841;DHT22;20142;28.494;-16.312;2023-12-20T20:56:47;17.50;80.10
33841;DHT22;20142;28.494;-16.312;2023-12-20T21:01:49;17.40;80.00
33841;DHT22;20142;28.494;-16.312;2023-12-20T21:06:50;17.40;80.00
33841;DHT22;20142;28.494;-16.312;2023-12-20T21:11:52;17.40;80.30
33841;DHT22;20142;28.494;-16.312;2023-12-20T21:16:54;17.20;80.20
33841;DHT22;20142;28.494;-16.312;2023-12-20T21:21:56;17.20;80.60
33841;DHT22;20142;28.494;-16.312;2023-12-20T21:26:57;17.40;80.40
33841;DHT22;20142;28.494;-16.312;2023-12-20T21:31:59;17.50;80.60
33841;DHT22;20142;28.494;-16.312;2023-12-20T21:37:01;17.50;80.40
33841;DHT22;20142;28.494;-16.312;2023-12-20T21:42:03;17.40;80.70
33841;DHT22;20142;28.494;-16.312;2023-12-20T21:47:06;17.40;80.90
33841;DHT22;20142;28.494;-16.312;2023-12-20T21:52:07;17.30;81.00
33841;DHT22;20142;28.494;-16.312;2023-12-20T21:57:09;17.40;81.20
33841;DHT22;20142;28.494;-16.312;2023-12-20T22:02:11;17.40;80.90
33841;DHT22;20142;28.494;-16.312;2023-12-20T22:07:12;17.40;81.30
33841;DHT22;20142;28.494;-16.312;2023-12-20T22:12:15;17.30;81.50
33841;DHT22;20142;28.494;-16.312;2023-12-20T22:17:17;17.30;81.80
33841;DHT22;20142;28.494;-16.312;2023-12-20T22:22:18;17.20;82.00
33841;DHT22;20142;28.494;-16.312;2023-12-20T22:27:22;17.20;82.30
33841;DHT22;20142;28.494;-16.312;2023-12-20T22:32:26;17.10;82.40
33841;DHT22;20142;28.494;-16.312;2023-12-20T22:37:29;16.90;82.50
33841;DHT22;20142;28.494;-16.312;2023-12-20T22:42:31;16.90;83.10
33841;DHT22;20142;28.494;-16.312;2023-12-20T22:47:32;16.90;82.90
33841;DHT22;20142;28.494;-16.312;2023-12-20T22:52:34;16.90;82.90
33841;DHT22;20142;28.494;-16.312;2023-12-20T22:57:36;16.90;83.20
33841;DHT22;20142;28.494;-16.312;2023-12-20T23:02:37;17.00;83.10
33841;DHT22;20142;28.494;-16.312;2023-12-20T23:07:39;16.90;83.20
33841;DHT22;20142;28.494;-16.312;2023-12-20T23:12:41;16.80;83.10
33841;DHT22;20142;28.494;-16.312;2023-12-20T23:17:43;16.80;83.20
33841;DHT22;20142;28.494;-16.312;2023-12-20T23:22:46;16.60;83.20
33841;DHT22;20142;28.494;-16.312;2023-12-20T23:27:47;16.80;83.30
33841;DHT22;20142;28.494;-16.312;2023-12-20T23:32:52;16.50;82.80
33841;DHT22;20142;28.494;-16.312;2023-12-20T23:37:54;16.70;82.90
33841;DHT22;20142;28.494;-16.312;2023-12-20T23:42:56;16.80;82.90
33841;DHT22;20142;28.494;-16.312;2023-12-20T23:47:57;16.70;82.60
33841;DHT22;20142;28.494;-16.312;2023-12-20T23:52:59;16.80;82.30
33841;DHT22;20142;28.494;-16.312;2023-12-20T23:58:01;16.70;81.70
